sensor_id;sensor_type;location;lat;lon;timestamp;P1;durP1;ratioP1;P2;durP2;ratioP2
41233;SDS011;26968;42.686;23.352;2024-03-23T00:55:36;26.65;;;12.63;;
41233;SDS011;26968;42.686;23.352;2024-03-23T00:58:01;24.25;;;11.30;;
41233;SDS011;26968;42.686;23.352;2024-03-23T01:00:27;31.20;;;12.07;;
41233;SDS011;26968;42.686;23.352;2024-03-23T01:02:52;24.92;;;12.25;;
41233;SDS011;26968;42.686;23.352;2024-03-23T01:05:18;25.75;;;11.25;;
41233;SDS011;26968;42.686;23.352;2024-03-23T01:07:44;29.25;;;10.70;;
41233;SDS011;26968;42.686;23.352;2024-03-23T01:10:09;28.35;;;12.45;;
41233;SDS011;26968;42.686;23.352;2024-03-23T01:12:36;25.85;;;10.50;;
41233;SDS011;26968;42.686;23.352;2024-03-23T01:15:03;22.63;;;10.93;;
41233;SDS011;26968;42.686;23.352;2024-03-23T01:17:29;22.10;;;11.82;;
41233;SDS011;26968;42.686;23.352;2024-03-23T01:19:54;23.90;;;10.63;;
41233;SDS011;26968;42.686;23.352;2024-03-23T01:22:20;21.65;;;11.07;;
41233;SDS011;26968;42.686;23.352;2024-03-23T01:24:45;26.73;;;11.32;;
41233;SDS011;26968;42.686;23.352;2024-03-23T01:27:10;31.10;;;9.88;;
41233;SDS011;26968;42.686;23.352;2024-03-23T01:29:36;26.08;;;10.15;;
41233;SDS011;26968;42.686;23.352;2024-03-23T01:32:01;26.17;;;11.68;;
41233;SDS011;26968;42.686;23.352;2024-03-23T01:34:27;23.38;;;10.65;;
41233;SDS011;26968;42.686;23.352;2024-03-23T01:36:53;24.63;;;11.63;;
41233;SDS011;26968;42.686;23.352;2024-03-23T01:39:18;27.58;;;11.70;;
41233;SDS011;26968;42.686;23.352;2024-03-23T01:41:44;25.05;;;10.75;;
41233;SDS011;26968;42.686;23.352;2024-03-23T01:44:10;19.48;;;10.50;;
41233;SDS011;26968;42.686;23.352;2024-03-23T01:49:02;24.23;;;10.15;;
41233;SDS011;26968;42.686;23.352;2024-03-23T01:51:28;22.23;;;10.88;;
41233;SDS011;26968;42.686;23.352;2024-03-23T01:53:54;17.80;;;8.90;;
41233;SDS011;26968;42.686;23.352;2024-03-23T01:56:21;24.15;;;9.18;;
41233;SDS011;26968;42.686;23.352;2024-03-23T01:58:47;24.48;;;11.07;;
41233;SDS011;26968;42.686;23.352;2024-03-23T02:01:13;22.23;;;10.68;;
41233;SDS011;26968;42.686;23.352;2024-03-23T02:03:38;22.05;;;10.68;;
41233;SDS011;26968;42.686;23.352;2024-03-23T02:06:04;22.75;;;10.75;;
41233;SDS011;26968;42.686;23.352;2024-03-23T02:08:32;20.13;;;10.18;;
41233;SDS011;26968;42.686;23.352;2024-03-23T02:10:58;20.42;;;10.70;;
41233;SDS011;26968;42.686;23.352;2024-03-23T02:13:23;22.08;;;10.52;;
41233;SDS011;26968;42.686;23.352;2024-03-23T02:15:49;25.00;;;10.65;;
41233;SDS011;26968;42.686;23.352;2024-03-23T02:18:15;25.88;;;11.48;;
41233;SDS011;26968;42.686;23.352;2024-03-23T02:20:40;24.02;;;10.10;;
41233;SDS011;26968;42.686;23.352;2024-03-23T02:23:12;25.92;;;10.00;;
41233;SDS011;26968;42.686;23.352;2024-03-23T02:25:39;24.70;;;12.00;;
41233;SDS011;26968;42.686;23.352;2024-03-23T02:28:04;22.85;;;9.90;;
41233;SDS011;26968;42.686;23.352;2024-03-23T02:30:30;18.25;;;9.82;;
41233;SDS011;26968;42.686;23.352;2024-03-23T02:32:56;26.42;;;10.20;;
41233;SDS011;26968;42.686;23.352;2024-03-23T02:35:21;23.33;;;11.98;;
41233;SDS011;26968;42.686;23.352;2024-03-23T02:37:47;26.75;;;11.23;;
41233;SDS011;26968;42.686;23.352;2024-03-23T02:40:15;21.92;;;11.52;;
41233;SDS011;26968;42.686;23.352;2024-03-23T02:42:41;22.63;;;9.90;;
41233;SDS011;26968;42.686;23.352;2024-03-23T02:45:07;24.38;;;11.23;;
41233;SDS011;26968;42.686;23.352;2024-03-23T02:47:33;23.98;;;10.65;;
41233;SDS011;26968;42.686;23.352;2024-03-23T02:49:59;21.05;;;11.18;;
41233;SDS011;26968;42.686;23.352;2024-03-23T02:52:24;28.65;;;10.65;;
41233;SDS011;26968;42.686;23.352;2024-03-23T02:54:50;21.90;;;9.82;;
41233;SDS011;26968;42.686;23.352;2024-03-23T02:57:15;22.52;;;9.48;;
41233;SDS011;26968;42.686;23.352;2024-03-23T02:59:44;23.10;;;9.45;;
41233;SDS011;26968;42.686;23.352;2024-03-23T03:02:09;25.05;;;9.95;;
41233;SDS011;26968;42.686;23.352;2024-03-23T03:04:36;21.13;;;8.98;;
41233;SDS011;26968;42.686;23.352;2024-03-23T03:07:01;19.73;;;8.40;;
41233;SDS011;26968;42.686;23.352;2024-03-23T03:09:27;17.73;;;9.82;;
41233;SDS011;26968;42.686;23.352;2024-03-23T03:11:52;17.38;;;9.25;;
41233;SDS011;26968;42.686;23.352;2024-03-23T03:14:18;18.05;;;9.35;;
41233;SDS011;26968;42.686;23.352;2024-03-23T03:16:44;18.77;;;9.23;;
41233;SDS011;26968;42.686;23.352;2024-03-23T03:19:09;20.90;;;9.35;;
41233;SDS011;26968;42.686;23.352;2024-03-23T03:24:01;17.70;;;6.55;;
41233;SDS011;26968;42.686;23.352;2024-03-23T03:28:53;15.63;;;7.40;;
41233;SDS011;26968;42.686;23.352;2024-03-23T03:31:18;14.77;;;6.22;;
41233;SDS011;26968;42.686;23.352;2024-03-23T03:33:44;13.15;;;5.78;;
41233;SDS011;26968;42.686;23.352;2024-03-23T03:36:10;13.93;;;7.03;;
41233;SDS011;26968;42.686;23.352;2024-03-23T03:38:35;13.77;;;6.57;;
41233;SDS011;26968;42.686;23.352;2024-03-23T03:41:02;13.38;;;6.82;;
41233;SDS011;26968;42.686;23.352;2024-03-23T03:43:27;15.45;;;6.80;;
41233;SDS011;26968;42.686;23.352;2024-03-23T03:45:56;15.02;;;8.07;;
41233;SDS011;26968;42.686;23.352;2024-03-23T03:48:23;16.02;;;6.35;;
41233;SDS011;26968;42.686;23.352;2024-03-23T03:50:48;16.15;;;7.32;;
41233;SDS011;26968;42.686;23.352;2024-03-23T03:53:14;14.88;;;8.00;;
41233;SDS011;26968;42.686;23.352;2024-03-23T03:55:40;15.00;;;7.07;;
41233;SDS011;26968;42.686;23.352;2024-03-23T03:58:06;16.90;;;6.88;;
41233;SDS011;26968;42.686;23.352;2024-03-23T04:00:31;15.00;;;6.45;;
41233;SDS011;26968;42.686;23.352;2024-03-23T04:02:57;14.73;;;6.70;;
41233;SDS011;26968;42.686;23.352;2024-03-23T04:05:22;16.60;;;8.90;;
41233;SDS011;26968;42.686;23.352;2024-03-23T04:07:48;12.35;;;6.38;;
41233;SDS011;26968;42.686;23.352;2024-03-23T04:10:14;16.10;;;7.68;;
41233;SDS011;26968;42.686;23.352;2024-03-23T04:12:40;18.90;;;8.95;;
41233;SDS011;26968;42.686;23.352;2024-03-23T04:17:32;23.63;;;8.10;;
41233;SDS011;26968;42.686;23.352;2024-03-23T04:19:59;20.15;;;8.20;;
41233;SDS011;26968;42.686;23.352;2024-03-23T04:22:25;24.17;;;8.63;;
41233;SDS011;26968;42.686;23.352;2024-03-23T04:24:55;15.70;;;7.60;;
41233;SDS011;26968;42.686;23.352;2024-03-23T04:27:23;21.35;;;8.90;;
41233;SDS011;26968;42.686;23.352;2024-03-23T04:29:49;17.75;;;7.20;;
41233;SDS011;26968;42.686;23.352;2024-03-23T04:32:15;17.83;;;7.05;;
41233;SDS011;26968;42.686;23.352;2024-03-23T04:34:41;22.17;;;9.80;;
41233;SDS011;26968;42.686;23.352;2024-03-23T04:37:08;16.73;;;8.48;;
41233;SDS011;26968;42.686;23.352;2024-03-23T04:39:35;23.88;;;9.02;;
41233;SDS011;26968;42.686;23.352;2024-03-23T04:42:01;15.65;;;8.25;;
41233;SDS011;26968;42.686;23.352;2024-03-23T04:44:28;18.63;;;7.38;;
41233;SDS011;26968;42.686;23.352;2024-03-23T04:46:53;17.83;;;8.35;;
41233;SDS011;26968;42.686;23.352;2024-03-23T04:49:19;21.45;;;7.95;;
41233;SDS011;26968;42.686;23.352;2024-03-23T04:51:45;16.85;;;7.93;;
41233;SDS011;26968;42.686;23.352;2024-03-23T04:54:11;17.75;;;8.15;;
41233;SDS011;26968;42.686;23.352;2024-03-23T04:56:37;21.25;;;7.72;;
41233;SDS011;26968;42.686;23.352;2024-03-23T04:59:03;15.82;;;6.90;;
41233;SDS011;26968;42.686;23.352;2024-03-23T05:01:30;18.77;;;6.75;;
41233;SDS011;26968;42.686;23.352;2024-03-23T05:06:22;19.42;;;8.30;;
41233;SDS011;26968;42.686;23.352;2024-03-23T05:08:47;25.75;;;9.32;;
41233;SDS011;26968;42.686;23.352;2024-03-23T05:11:13;18.85;;;9.05;;
41233;SDS011;26968;42.686;23.352;2024-03-23T05:13:39;24.35;;;8.18;;
41233;SDS011;26968;42.686;23.352;2024-03-23T05:16:04;15.82;;;6.68;;
41233;SDS011;26968;42.686;23.352;2024-03-23T05:18:30;19.35;;;8.50;;
41233;SDS011;26968;42.686;23.352;2024-03-23T05:20:57;18.08;;;7.32;;
41233;SDS011;26968;42.686;23.352;2024-03-23T05:23:23;22.27;;;7.10;;
41233;SDS011;26968;42.686;23.352;2024-03-23T05:25:49;14.15;;;7.35;;
41233;SDS011;26968;42.686;23.352;2024-03-23T05:28:15;14.85;;;6.65;;
41233;SDS011;26968;42.686;23.352;2024-03-23T05:30:41;19.92;;;7.80;;
41233;SDS011;26968;42.686;23.352;2024-03-23T05:33:06;16.42;;;7.00;;
41233;SDS011;26968;42.686;23.352;2024-03-23T05:35:32;17.77;;;8.48;;
41233;SDS011;26968;42.686;23.352;2024-03-23T05:37:58;18.60;;;7.68;;
41233;SDS011;26968;42.686;23.352;2024-03-23T05:40:24;17.77;;;7.18;;
41233;SDS011;26968;42.686;23.352;2024-03-23T05:42:51;12.75;;;5.70;;
41233;SDS011;26968;42.686;23.352;2024-03-23T05:45:20;12.70;;;5.32;;
41233;SDS011;26968;42.686;23.352;2024-03-23T05:47:47;9.82;;;5.40;;
41233;SDS011;26968;42.686;23.352;2024-03-23T05:50:13;13.85;;;6.05;;
41233;SDS011;26968;42.686;23.352;2024-03-23T05:52:39;12.57;;;6.00;;
41233;SDS011;26968;42.686;23.352;2024-03-23T05:55:05;11.52;;;6.05;;
41233;SDS011;26968;42.686;23.352;2024-03-23T05:57:31;20.63;;;6.05;;
41233;SDS011;26968;42.686;23.352;2024-03-23T05:59:57;13.90;;;5.85;;
41233;SDS011;26968;42.686;23.352;2024-03-23T06:02:22;13.48;;;7.00;;
41233;SDS011;26968;42.686;23.352;2024-03-23T06:07:14;20.65;;;8.50;;
41233;SDS011;26968;42.686;23.352;2024-03-23T06:09:42;21.02;;;9.55;;
41233;SDS011;26968;42.686;23.352;2024-03-23T06:12:08;21.58;;;10.25;;
41233;SDS011;26968;42.686;23.352;2024-03-23T06:14:34;21.38;;;9.60;;
41233;SDS011;26968;42.686;23.352;2024-03-23T06:17:00;22.60;;;11.27;;
41233;SDS011;26968;42.686;23.352;2024-03-23T06:19:25;22.23;;;10.43;;
41233;SDS011;26968;42.686;23.352;2024-03-23T06:21:53;22.73;;;10.25;;
41233;SDS011;26968;42.686;23.352;2024-03-23T06:24:20;30.15;;;11.98;;
41233;SDS011;26968;42.686;23.352;2024-03-23T06:26:46;22.90;;;10.65;;
41233;SDS011;26968;42.686;23.352;2024-03-23T06:29:12;29.35;;;9.88;;
41233;SDS011;26968;42.686;23.352;2024-03-23T06:31:37;19.42;;;9.88;;
41233;SDS011;26968;42.686;23.352;2024-03-23T06:34:03;22.55;;;9.88;;
41233;SDS011;26968;42.686;23.352;2024-03-23T06:36:28;28.55;;;10.77;;
41233;SDS011;26968;42.686;23.352;2024-03-23T06:38:55;23.83;;;10.40;;
41233;SDS011;26968;42.686;23.352;2024-03-23T06:41:21;22.67;;;11.05;;
41233;SDS011;26968;42.686;23.352;2024-03-23T06:43:46;22.83;;;9.43;;
41233;SDS011;26968;42.686;23.352;2024-03-23T06:46:12;18.60;;;9.48;;
41233;SDS011;26968;42.686;23.352;2024-03-23T06:48:37;25.50;;;11.55;;
41233;SDS011;26968;42.686;23.352;2024-03-23T06:51:03;22.67;;;11.50;;
41233;SDS011;26968;42.686;23.352;2024-03-23T06:53:29;25.23;;;12.23;;
41233;SDS011;26968;42.686;23.352;2024-03-23T06:55:54;24.95;;;12.60;;
41233;SDS011;26968;42.686;23.352;2024-03-23T06:58:23;21.25;;;11.30;;
41233;SDS011;26968;42.686;23.352;2024-03-23T07:00:50;24.95;;;11.88;;
41233;SDS011;26968;42.686;23.352;2024-03-23T07:03:18;23.75;;;12.35;;
41233;SDS011;26968;42.686;23.352;2024-03-23T07:05:45;22.40;;;11.05;;
41233;SDS011;26968;42.686;23.352;2024-03-23T07:08:11;24.45;;;11.73;;
41233;SDS011;26968;42.686;23.352;2024-03-23T07:10:39;29.70;;;13.05;;
41233;SDS011;26968;42.686;23.352;2024-03-23T07:13:05;22.08;;;12.52;;
41233;SDS011;26968;42.686;23.352;2024-03-23T07:15:30;24.13;;;11.95;;
41233;SDS011;26968;42.686;23.352;2024-03-23T07:17:56;21.25;;;10.80;;
41233;SDS011;26968;42.686;23.352;2024-03-23T07:20:22;26.23;;;11.85;;
41233;SDS011;26968;42.686;23.352;2024-03-23T07:22:47;23.85;;;11.45;;
41233;SDS011;26968;42.686;23.352;2024-03-23T07:27:39;27.00;;;11.13;;
41233;SDS011;26968;42.686;23.352;2024-03-23T07:30:05;22.00;;;9.57;;
41233;SDS011;26968;42.686;23.352;2024-03-23T07:32:32;20.40;;;9.65;;
41233;SDS011;26968;42.686;23.352;2024-03-23T07:34:57;17.45;;;9.20;;
41233;SDS011;26968;42.686;23.352;2024-03-23T07:37:23;20.67;;;9.85;;
41233;SDS011;26968;42.686;23.352;2024-03-23T07:39:48;20.52;;;9.15;;
41233;SDS011;26968;42.686;23.352;2024-03-23T07:42:15;24.00;;;9.73;;
41233;SDS011;26968;42.686;23.352;2024-03-23T07:44:41;22.60;;;11.63;;
41233;SDS011;26968;42.686;23.352;2024-03-23T07:47:06;22.58;;;9.00;;
41233;SDS011;26968;42.686;23.352;2024-03-23T07:49:32;20.73;;;8.68;;
41233;SDS011;26968;42.686;23.352;2024-03-23T07:51:57;22.40;;;10.25;;
41233;SDS011;26968;42.686;23.352;2024-03-23T07:54:23;19.02;;;9.63;;
41233;SDS011;26968;42.686;23.352;2024-03-23T07:59:14;20.63;;;9.80;;
41233;SDS011;26968;42.686;23.352;2024-03-23T08:04:05;20.90;;;9.90;;
41233;SDS011;26968;42.686;23.352;2024-03-23T08:06:31;18.60;;;9.88;;
41233;SDS011;26968;42.686;23.352;2024-03-23T08:08:56;21.33;;;8.55;;
41233;SDS011;26968;42.686;23.352;2024-03-23T08:11:26;21.95;;;9.52;;
41233;SDS011;26968;42.686;23.352;2024-03-23T08:13:55;22.63;;;10.05;;
41233;SDS011;26968;42.686;23.352;2024-03-23T08:16:21;20.50;;;9.15;;
41233;SDS011;26968;42.686;23.352;2024-03-23T08:18:47;22.45;;;9.27;;
41233;SDS011;26968;42.686;23.352;2024-03-23T08:21:12;21.55;;;10.35;;
41233;SDS011;26968;42.686;23.352;2024-03-23T08:26:07;20.00;;;9.55;;
41233;SDS011;26968;42.686;23.352;2024-03-23T08:28:34;22.83;;;10.73;;
41233;SDS011;26968;42.686;23.352;2024-03-23T08:38:24;15.07;;;7.47;;
41233;SDS011;26968;42.686;23.352;2024-03-23T08:41:00;15.98;;;8.82;;
41233;SDS011;26968;42.686;23.352;2024-03-23T08:43:29;19.67;;;8.60;;
41233;SDS011;26968;42.686;23.352;2024-03-23T08:46:09;23.88;;;8.23;;
41233;SDS011;26968;42.686;23.352;2024-03-23T08:48:37;23.95;;;9.55;;
41233;SDS011;26968;42.686;23.352;2024-03-23T08:51:04;18.48;;;8.85;;
41233;SDS011;26968;42.686;23.352;2024-03-23T08:53:31;17.13;;;8.27;;
41233;SDS011;26968;42.686;23.352;2024-03-23T08:56:02;19.58;;;9.73;;
41233;SDS011;26968;42.686;23.352;2024-03-23T08:58:30;20.45;;;9.13;;
41233;SDS011;26968;42.686;23.352;2024-03-23T09:00:57;25.40;;;10.82;;
41233;SDS011;26968;42.686;23.352;2024-03-23T09:03:28;18.70;;;9.63;;
41233;SDS011;26968;42.686;23.352;2024-03-23T09:08:20;22.05;;;9.75;;
41233;SDS011;26968;42.686;23.352;2024-03-23T09:13:12;16.05;;;8.38;;
41233;SDS011;26968;42.686;23.352;2024-03-23T09:23:01;16.33;;;7.20;;
41233;SDS011;26968;42.686;23.352;2024-03-23T09:27:52;18.25;;;8.57;;
41233;SDS011;26968;42.686;23.352;2024-03-23T09:33:02;17.65;;;8.20;;
41233;SDS011;26968;42.686;23.352;2024-03-23T09:35:28;15.18;;;8.10;;
41233;SDS011;26968;42.686;23.352;2024-03-23T09:40:19;14.90;;;8.27;;
41233;SDS011;26968;42.686;23.352;2024-03-23T09:45:21;14.90;;;8.40;;
41233;SDS011;26968;42.686;23.352;2024-03-23T09:47:51;15.75;;;7.68;;
41233;SDS011;26968;42.686;23.352;2024-03-23T09:50:17;19.08;;;9.02;;
41233;SDS011;26968;42.686;23.352;2024-03-23T09:52:43;16.65;;;7.82;;
41233;SDS011;26968;42.686;23.352;2024-03-23T09:55:11;14.73;;;8.50;;
41233;SDS011;26968;42.686;23.352;2024-03-23T09:57:37;14.85;;;7.70;;
41233;SDS011;26968;42.686;23.352;2024-03-23T10:02:28;16.92;;;8.63;;
41233;SDS011;26968;42.686;23.352;2024-03-23T10:10:12;14.43;;;6.78;;
41233;SDS011;26968;42.686;23.352;2024-03-23T10:12:39;14.95;;;7.55;;
41233;SDS011;26968;42.686;23.352;2024-03-23T10:15:21;13.93;;;7.70;;
41233;SDS011;26968;42.686;23.352;2024-03-23T10:17:48;18.05;;;9.55;;
41233;SDS011;26968;42.686;23.352;2024-03-23T10:20:18;16.50;;;7.38;;
41233;SDS011;26968;42.686;23.352;2024-03-23T10:22:51;14.63;;;8.48;;
41233;SDS011;26968;42.686;23.352;2024-03-23T10:25:17;13.27;;;8.65;;
41233;SDS011;26968;42.686;23.352;2024-03-23T10:27:57;14.20;;;7.85;;
41233;SDS011;26968;42.686;23.352;2024-03-23T10:30:24;15.75;;;7.85;;
41233;SDS011;26968;42.686;23.352;2024-03-23T10:32:58;11.70;;;7.35;;
41233;SDS011;26968;42.686;23.352;2024-03-23T10:35:32;15.18;;;8.10;;
41233;SDS011;26968;42.686;23.352;2024-03-23T10:37:57;17.15;;;7.97;;
41233;SDS011;26968;42.686;23.352;2024-03-23T10:40:23;14.70;;;7.53;;
41233;SDS011;26968;42.686;23.352;2024-03-23T10:42:49;13.27;;;7.03;;
41233;SDS011;26968;42.686;23.352;2024-03-23T10:45:17;12.55;;;7.15;;
41233;SDS011;26968;42.686;23.352;2024-03-23T10:47:43;14.93;;;6.75;;
41233;SDS011;26968;42.686;23.352;2024-03-23T10:50:08;14.07;;;8.02;;
41233;SDS011;26968;42.686;23.352;2024-03-23T10:52:34;14.10;;;7.90;;
41233;SDS011;26968;42.686;23.352;2024-03-23T10:55:01;20.90;;;7.35;;
41233;SDS011;26968;42.686;23.352;2024-03-23T10:57:40;13.60;;;8.00;;
41233;SDS011;26968;42.686;23.352;2024-03-23T11:00:10;12.45;;;6.28;;
41233;SDS011;26968;42.686;23.352;2024-03-23T11:02:37;10.85;;;6.53;;
41233;SDS011;26968;42.686;23.352;2024-03-23T11:05:17;14.30;;;7.05;;
41233;SDS011;26968;42.686;23.352;2024-03-23T11:07:51;11.55;;;5.93;;
41233;SDS011;26968;42.686;23.352;2024-03-23T11:10:30;10.27;;;6.40;;
41233;SDS011;26968;42.686;23.352;2024-03-23T11:12:58;12.82;;;6.18;;
41233;SDS011;26968;42.686;23.352;2024-03-23T11:15:43;13.40;;;7.35;;
41233;SDS011;26968;42.686;23.352;2024-03-23T11:18:09;14.63;;;7.38;;
41233;SDS011;26968;42.686;23.352;2024-03-23T11:20:35;9.55;;;5.70;;
41233;SDS011;26968;42.686;23.352;2024-03-23T11:23:01;12.13;;;7.32;;
41233;SDS011;26968;42.686;23.352;2024-03-23T11:25:28;9.75;;;6.53;;
41233;SDS011;26968;42.686;23.352;2024-03-23T11:27:55;10.60;;;6.82;;
41233;SDS011;26968;42.686;23.352;2024-03-23T11:30:26;12.57;;;6.25;;
41233;SDS011;26968;42.686;23.352;2024-03-23T11:32:56;13.15;;;6.40;;
41233;SDS011;26968;42.686;23.352;2024-03-23T11:35:32;11.63;;;6.25;;
41233;SDS011;26968;42.686;23.352;2024-03-23T11:40:33;14.88;;;5.90;;
41233;SDS011;26968;42.686;23.352;2024-03-23T11:43:00;12.85;;;6.05;;
41233;SDS011;26968;42.686;23.352;2024-03-23T11:45:27;11.45;;;6.15;;
41233;SDS011;26968;42.686;23.352;2024-03-23T11:48:06;28.02;;;7.60;;
41233;SDS011;26968;42.686;23.352;2024-03-23T11:50:37;13.85;;;6.38;;
41233;SDS011;26968;42.686;23.352;2024-03-23T11:58:16;12.60;;;5.82;;
41233;SDS011;26968;42.686;23.352;2024-03-23T12:00:43;11.38;;;6.25;;
41233;SDS011;26968;42.686;23.352;2024-03-23T12:03:18;11.38;;;5.55;;
41233;SDS011;26968;42.686;23.352;2024-03-23T12:05:49;10.43;;;6.05;;
41233;SDS011;26968;42.686;23.352;2024-03-23T12:11:15;16.58;;;6.20;;
41233;SDS011;26968;42.686;23.352;2024-03-23T12:13:42;11.57;;;5.63;;
41233;SDS011;26968;42.686;23.352;2024-03-23T12:16:16;8.95;;;5.28;;
41233;SDS011;26968;42.686;23.352;2024-03-23T12:18:43;11.80;;;5.78;;
41233;SDS011;26968;42.686;23.352;2024-03-23T12:21:10;10.68;;;5.93;;
41233;SDS011;26968;42.686;23.352;2024-03-23T12:23:35;11.02;;;5.80;;
41233;SDS011;26968;42.686;23.352;2024-03-23T12:26:03;11.38;;;4.90;;
41233;SDS011;26968;42.686;23.352;2024-03-23T12:28:29;13.75;;;4.43;;
41233;SDS011;26968;42.686;23.352;2024-03-23T12:30:54;10.70;;;4.80;;
41233;SDS011;26968;42.686;23.352;2024-03-23T12:33:20;9.02;;;4.43;;
41233;SDS011;26968;42.686;23.352;2024-03-23T12:35:47;12.13;;;5.35;;
41233;SDS011;26968;42.686;23.352;2024-03-23T12:38:13;9.82;;;4.90;;
41233;SDS011;26968;42.686;23.352;2024-03-23T12:40:38;8.80;;;4.55;;
41233;SDS011;26968;42.686;23.352;2024-03-23T12:43:04;10.43;;;4.65;;
41233;SDS011;26968;42.686;23.352;2024-03-23T12:45:29;8.48;;;4.30;;
41233;SDS011;26968;42.686;23.352;2024-03-23T12:47:55;9.85;;;3.78;;
41233;SDS011;26968;42.686;23.352;2024-03-23T12:50:21;8.18;;;4.28;;
41233;SDS011;26968;42.686;23.352;2024-03-23T12:52:46;11.85;;;4.40;;
41233;SDS011;26968;42.686;23.352;2024-03-23T12:55:12;8.65;;;4.43;;
41233;SDS011;26968;42.686;23.352;2024-03-23T12:57:38;8.15;;;4.20;;
41233;SDS011;26968;42.686;23.352;2024-03-23T13:00:04;6.68;;;4.20;;
41233;SDS011;26968;42.686;23.352;2024-03-23T13:02:30;9.20;;;3.63;;
41233;SDS011;26968;42.686;23.352;2024-03-23T13:04:56;9.52;;;4.60;;
41233;SDS011;26968;42.686;23.352;2024-03-23T13:07:22;10.38;;;4.82;;
41233;SDS011;26968;42.686;23.352;2024-03-23T13:09:51;8.60;;;4.70;;
41233;SDS011;26968;42.686;23.352;2024-03-23T13:12:20;7.80;;;5.30;;
41233;SDS011;26968;42.686;23.352;2024-03-23T13:14:46;7.88;;;3.80;;
41233;SDS011;26968;42.686;23.352;2024-03-23T13:17:12;7.00;;;3.75;;
41233;SDS011;26968;42.686;23.352;2024-03-23T13:19:38;5.43;;;3.42;;
41233;SDS011;26968;42.686;23.352;2024-03-23T13:22:04;8.20;;;3.72;;
41233;SDS011;26968;42.686;23.352;2024-03-23T13:24:29;7.75;;;4.03;;
41233;SDS011;26968;42.686;23.352;2024-03-23T13:26:56;7.47;;;3.15;;
41233;SDS011;26968;42.686;23.352;2024-03-23T13:29:22;3.28;;;1.98;;
41233;SDS011;26968;42.686;23.352;2024-03-23T13:31:49;3.28;;;1.05;;
41233;SDS011;26968;42.686;23.352;2024-03-23T13:34:16;2.05;;;1.30;;
41233;SDS011;26968;42.686;23.352;2024-03-23T13:36:45;2.83;;;1.60;;
41233;SDS011;26968;42.686;23.352;2024-03-23T13:39:11;4.18;;;2.05;;
41233;SDS011;26968;42.686;23.352;2024-03-23T13:44:03;2.15;;;1.40;;
41233;SDS011;26968;42.686;23.352;2024-03-23T13:46:30;2.10;;;1.13;;
41233;SDS011;26968;42.686;23.352;2024-03-23T13:48:55;5.25;;;1.10;;
41233;SDS011;26968;42.686;23.352;2024-03-23T13:51:23;3.20;;;1.48;;
41233;SDS011;26968;42.686;23.352;2024-03-23T13:53:52;2.53;;;1.45;;
41233;SDS011;26968;42.686;23.352;2024-03-23T13:56:18;3.33;;;1.13;;
41233;SDS011;26968;42.686;23.352;2024-03-23T13:58:43;4.43;;;2.00;;
41233;SDS011;26968;42.686;23.352;2024-03-23T14:01:12;2.53;;;1.20;;
41233;SDS011;26968;42.686;23.352;2024-03-23T14:03:38;4.20;;;1.60;;
41233;SDS011;26968;42.686;23.352;2024-03-23T14:06:03;4.57;;;1.85;;
41233;SDS011;26968;42.686;23.352;2024-03-23T14:08:31;3.30;;;1.50;;
41233;SDS011;26968;42.686;23.352;2024-03-23T14:10:58;6.53;;;1.50;;
41233;SDS011;26968;42.686;23.352;2024-03-23T14:13:23;1.50;;;1.30;;
41233;SDS011;26968;42.686;23.352;2024-03-23T14:15:53;4.15;;;1.35;;
41233;SDS011;26968;42.686;23.352;2024-03-23T14:18:18;5.25;;;1.38;;
41233;SDS011;26968;42.686;23.352;2024-03-23T14:20:44;2.25;;;1.30;;
41233;SDS011;26968;42.686;23.352;2024-03-23T14:23:09;3.25;;;1.63;;
41233;SDS011;26968;42.686;23.352;2024-03-23T14:25:35;1.58;;;1.20;;
41233;SDS011;26968;42.686;23.352;2024-03-23T14:28:01;3.40;;;1.30;;
41233;SDS011;26968;42.686;23.352;2024-03-23T14:30:26;1.75;;;1.42;;
41233;SDS011;26968;42.686;23.352;2024-03-23T14:32:52;2.60;;;1.60;;
41233;SDS011;26968;42.686;23.352;2024-03-23T14:35:17;3.47;;;1.40;;
41233;SDS011;26968;42.686;23.352;2024-03-23T14:37:43;2.30;;;1.40;;
41233;SDS011;26968;42.686;23.352;2024-03-23T14:40:08;4.13;;;1.92;;
41233;SDS011;26968;42.686;23.352;2024-03-23T14:42:37;4.22;;;1.20;;
41233;SDS011;26968;42.686;23.352;2024-03-23T14:45:03;2.97;;;1.60;;
41233;SDS011;26968;42.686;23.352;2024-03-23T14:47:30;2.80;;;1.55;;
41233;SDS011;26968;42.686;23.352;2024-03-23T14:49:56;2.83;;;1.30;;
41233;SDS011;26968;42.686;23.352;2024-03-23T14:52:23;1.98;;;1.20;;
41233;SDS011;26968;42.686;23.352;2024-03-23T14:54:49;2.70;;;1.23;;
41233;SDS011;26968;42.686;23.352;2024-03-23T14:57:14;1.92;;;1.30;;
41233;SDS011;26968;42.686;23.352;2024-03-23T14:59:40;2.75;;;1.80;;
41233;SDS011;26968;42.686;23.352;2024-03-23T15:02:06;1.60;;;1.30;;
41233;SDS011;26968;42.686;23.352;2024-03-23T15:04:34;3.47;;;1.33;;
41233;SDS011;26968;42.686;23.352;2024-03-23T15:07:00;2.50;;;1.30;;
41233;SDS011;26968;42.686;23.352;2024-03-23T15:09:26;4.47;;;1.30;;
41233;SDS011;26968;42.686;23.352;2024-03-23T15:11:52;5.32;;;2.05;;
41233;SDS011;26968;42.686;23.352;2024-03-23T15:14:20;4.07;;;2.50;;
41233;SDS011;26968;42.686;23.352;2024-03-23T15:16:45;5.30;;;2.60;;
41233;SDS011;26968;42.686;23.352;2024-03-23T15:19:13;7.68;;;3.03;;
41233;SDS011;26968;42.686;23.352;2024-03-23T15:21:39;3.75;;;2.35;;
41233;SDS011;26968;42.686;23.352;2024-03-23T15:24:05;5.43;;;2.20;;
41233;SDS011;26968;42.686;23.352;2024-03-23T15:26:31;3.90;;;2.20;;
41233;SDS011;26968;42.686;23.352;2024-03-23T15:28:57;3.17;;;2.00;;
41233;SDS011;26968;42.686;23.352;2024-03-23T15:31:24;7.22;;;2.28;;
41233;SDS011;26968;42.686;23.352;2024-03-23T15:33:50;6.90;;;2.67;;
41233;SDS011;26968;42.686;23.352;2024-03-23T15:36:17;6.18;;;2.10;;
41233;SDS011;26968;42.686;23.352;2024-03-23T15:38:43;4.15;;;3.00;;
41233;SDS011;26968;42.686;23.352;2024-03-23T15:41:08;5.93;;;2.60;;
41233;SDS011;26968;42.686;23.352;2024-03-23T15:43:35;6.72;;;3.05;;
41233;SDS011;26968;42.686;23.352;2024-03-23T15:46:01;4.97;;;3.05;;
41233;SDS011;26968;42.686;23.352;2024-03-23T15:48:31;4.63;;;2.80;;
41233;SDS011;26968;42.686;23.352;2024-03-23T15:50:57;6.05;;;3.00;;
41233;SDS011;26968;42.686;23.352;2024-03-23T15:53:24;4.30;;;2.60;;
41233;SDS011;26968;42.686;23.352;2024-03-23T15:56:00;6.82;;;2.95;;
41233;SDS011;26968;42.686;23.352;2024-03-23T15:58:27;5.75;;;2.60;;
41233;SDS011;26968;42.686;23.352;2024-03-23T16:01:04;6.72;;;3.03;;
41233;SDS011;26968;42.686;23.352;2024-03-23T16:03:30;4.88;;;3.28;;
41233;SDS011;26968;42.686;23.352;2024-03-23T16:05:57;3.67;;;2.50;;
41233;SDS011;26968;42.686;23.352;2024-03-23T16:08:28;6.05;;;2.03;;
41233;SDS011;26968;42.686;23.352;2024-03-23T16:10:59;5.25;;;2.05;;
41233;SDS011;26968;42.686;23.352;2024-03-23T16:13:25;2.95;;;1.75;;
41233;SDS011;26968;42.686;23.352;2024-03-23T16:15:57;2.38;;;1.63;;
41233;SDS011;26968;42.686;23.352;2024-03-23T16:18:32;3.72;;;1.92;;
41233;SDS011;26968;42.686;23.352;2024-03-23T16:20:59;4.78;;;1.90;;
41233;SDS011;26968;42.686;23.352;2024-03-23T16:23:26;6.80;;;2.15;;
41233;SDS011;26968;42.686;23.352;2024-03-23T16:25:53;6.63;;;3.03;;
41233;SDS011;26968;42.686;23.352;2024-03-23T16:28:23;4.63;;;2.50;;
41233;SDS011;26968;42.686;23.352;2024-03-23T16:31:15;4.70;;;2.55;;